Terminal Aerodrome Forecast
Issued by NWS

Home | Current Version | Previous Version | Text Only | Print | Product List | Glossary On
Versions: 1 2 3 4 5 6 7 8 9 10 11 12 13 14 15 16 17 18 19 20 21 22 23 24 25 26 27 28 29 30 31 32 33 34 35 36 37 38 39 40 41 42 43 44 45 46 47 48
000
FTUS45 KBOU 141305 AAA
TAFAPA
TAF AMD
KAPA 141305Z 1413/1512 15012KT P6SM FEW120 BKN220
     FM141600 25008KT P6SM SCT120 BKN180
     FM141800 28012KT P6SM SCT120 BKN180
     FM142000 30012G20KT P6SM SCT080 BKN120
      TEMPO 1420/1424 30018G28KT
     FM150200 27008KT P6SM BKN080 BKN120
     FM150500 24007KT P6SM SCT120 SCT220
     FM150800 21007KT P6SM SCT120 SCT220=

USA.gov is the U.S. government's official web portal to all federal, state and local government web resources and services.